Time;durP1;ratioP1;P1;durP2;ratioP2;P2;SDS_P1;SDS_P2;PMS_P1;PMS_P2;Temp;Humidity;BMP_temperature;BMP_pressure;BME280_temperature;BME280_humidity;BME280_pressure;Samples;Min_cycle;Max_cycle;Signal;HPM_P1;HPM_P2
2023/03/09 00:00:08;;;;;;;17.00;12.83;;;1.30;99.90;;;0.23;90.01;98697.69;5053471;28;20240;-73
2023/03/09 00:02:41;;;;;;;18.27;12.87;;;1.30;99.90;;;0.21;91.10;98702.25;5053726;28;20198;-73
2023/03/09 00:05:16;;;;;;;17.37;12.97;;;1.30;99.90;;;0.20;91.32;98710.31;5053887;28;20256;-73
2023/03/09 00:07:50;;;;;;;15.97;12.00;;;1.30;99.90;;;0.19;90.35;98703.38;5053658;28;20201;-72
2023/03/09 00:10:23;;;;;;;16.87;13.33;;;1.20;99.90;;;0.16;91.47;98698.41;5053670;28;20182;-73
2023/03/09 00:12:54;;;;;;;17.53;12.83;;;1.20;99.90;;;0.16;90.81;98695.78;5053443;28;20194;-74
2023/03/09 00:15:26;;;;;;;18.43;14.00;;;1.20;99.90;;;0.13;90.46;98694.28;5053341;28;20248;-73
2023/03/09 00:17:58;;;;;;;21.30;15.20;;;1.20;99.90;;;0.14;91.86;98692.50;5053347;28;20658;-73
2023/03/09 00:20:30;;;;;;;19.23;14.27;;;1.20;99.90;;;0.18;91.68;98688.56;5053486;28;20674;-73
2023/03/09 00:23:08;;;;;;;19.67;15.13;;;1.30;99.90;;;0.16;90.84;98699.25;5053124;28;20202;-73
2023/03/09 00:25:40;;;;;;;19.20;14.77;;;1.20;99.90;;;0.13;91.61;98696.06;5053193;28;20218;-73
2023/03/09 00:28:12;;;;;;;20.07;13.67;;;1.20;99.90;;;0.13;91.25;98689.03;5053545;28;20190;-73
2023/03/09 00:30:43;;;;;;;20.13;15.23;;;1.20;99.90;;;0.12;91.68;98687.34;5053458;28;20197;-73
2023/03/09 00:33:15;;;;;;;17.73;13.63;;;1.20;99.90;;;0.16;90.96;98688.72;5053103;28;20706;-73
2023/03/09 00:35:47;;;;;;;19.63;14.67;;;1.20;99.90;;;0.20;91.05;98689.28;5053272;28;20300;-73
2023/03/09 00:38:21;;;;;;;19.07;13.77;;;1.20;99.90;;;0.24;91.14;98690.66;5053007;28;20556;-73
2023/03/09 00:40:52;;;;;;;18.90;13.53;;;1.30;99.90;;;0.25;91.25;98677.31;5053809;28;20662;-73
2023/03/09 00:43:24;;;;;;;19.47;14.13;;;1.30;99.90;;;0.23;91.35;98671.38;5057041;28;20701;-74
2023/03/09 00:45:56;;;;;;;18.33;13.70;;;1.30;99.90;;;0.14;90.52;98669.59;5057376;28;20207;-73
2023/03/09 00:48:28;;;;;;;16.93;12.90;;;1.20;99.90;;;0.23;91.03;98670.56;5057371;28;20194;-74
2023/03/09 00:51:00;;;;;;;15.70;12.90;;;1.30;99.90;;;0.24;90.24;98670.38;5057224;28;20251;-73
2023/03/09 00:53:33;;;;;;;17.10;12.90;;;1.30;99.90;;;0.24;91.25;98669.59;5056902;28;20718;-73
2023/03/09 00:56:07;;;;;;;17.83;13.20;;;1.30;99.90;;;0.20;89.88;98661.16;5057118;28;20210;-73
2023/03/09 00:58:39;;;;;;;17.10;13.30;;;1.30;99.90;;;0.21;90.80;98660.16;5056882;28;20707;-73
2023/03/09 01:01:16;;;;;;;19.07;14.07;;;1.20;99.90;;;0.11;91.75;98659.38;5056579;28;20639;-73
2023/03/09 01:03:49;;;;;;;21.70;14.83;;;1.20;99.90;;;0.11;91.21;98659.38;5056130;28;20267;-73
2023/03/09 01:06:23;;;;;;;17.53;12.80;;;1.20;99.90;;;0.16;91.99;98664.22;5056962;28;20194;-74
2023/03/09 01:08:56;;;;;;;20.27;14.80;;;1.20;99.90;;;0.12;91.82;98655.78;5056939;28;20194;-74
2023/03/09 01:11:29;;;;;;;20.37;15.03;;;1.20;99.90;;;0.10;91.53;98641.97;5056590;28;20533;-74
2023/03/09 01:14:01;;;;;;;20.67;15.67;;;1.20;99.90;;;0.14;91.24;98627.50;5056791;28;20237;-74
2023/03/09 01:16:33;;;;;;;18.93;14.80;;;1.20;99.90;;;0.10;91.05;98631.44;5056430;28;20210;-74
2023/03/09 01:19:05;;;;;;;22.30;15.93;;;1.20;99.90;;;0.12;91.38;98624.22;5056505;28;20557;-74
2023/03/09 01:21:37;;;;;;;19.10;14.73;;;1.20;99.90;;;0.11;90.99;98624.34;5056769;28;20197;-74
2023/03/09 01:24:10;;;;;;;22.20;15.57;;;1.10;99.90;;;0.07;91.53;98620.38;5056637;28;20226;-73
2023/03/09 01:26:42;;;;;;;19.37;15.40;;;1.10;99.90;;;0.04;91.37;98618.84;5056454;28;20639;-73
2023/03/09 01:29:14;;;;;;;18.30;14.93;;;1.10;99.90;;;0.07;91.77;98625.63;5056637;28;20186;-74
2023/03/09 01:31:45;;;;;;;18.27;14.33;;;1.10;99.90;;;0.07;91.64;98625.63;5056622;28;20191;-73
2023/03/09 01:34:18;;;;;;;19.33;15.17;;;1.10;99.90;;;0.05;90.68;98624.94;5056372;28;20233;-73
2023/03/09 01:36:50;;;;;;;20.07;15.90;;;1.10;99.90;;;0.03;91.01;98613.75;5056825;28;20260;-73
2023/03/09 01:39:23;;;;;;;19.20;14.67;;;1.90;99.90;;;0.07;90.97;98612.47;5056465;28;20190;-73
2023/03/09 01:41:55;;;;;;;18.87;14.80;;;1.10;99.90;;;0.04;90.62;98615.38;5056117;28;20537;-73
2023/03/09 01:44:27;;;;;;;19.13;15.17;;;1.10;99.90;;;0.06;91.63;98611.66;5056368;28;20222;-73
2023/03/09 01:46:59;;;;;;;17.83;13.83;;;1.00;99.90;;;0.04;90.86;98613.56;5056404;28;20214;-73
2023/03/09 01:49:37;;;;;;;20.30;15.53;;;1.10;99.90;;;-0.01;91.21;98607.94;5056786;28;20194;-73
2023/03/09 01:52:15;;;;;;;17.77;14.17;;;1.10;99.90;;;0.00;91.57;98604.34;5058096;28;20194;-73
2023/03/09 01:54:58;;;;;;;17.47;13.47;;;1.10;99.90;;;0.01;91.08;98600.72;5058303;28;20237;-73
2023/03/09 01:57:35;;;;;;;18.13;13.87;;;1.10;99.90;;;-0.06;90.83;98610.16;5059226;28;20194;-73
2023/03/09 02:00:12;;;;;;;16.43;13.27;;;1.00;99.90;;;-0.02;91.50;98606.28;5058095;28;20194;-74
2023/03/09 02:02:49;;;;;;;19.13;13.30;;;1.10;99.90;;;-0.04;90.98;98602.97;5057299;28;20205;-73
2023/03/09 02:05:27;;;;;;;15.87;12.63;;;1.00;99.90;;;-0.12;91.07;98600.22;5059021;28;20603;-73
2023/03/09 02:08:00;;;;;;;17.57;13.60;;;1.00;99.90;;;-0.11;92.11;98610.63;5059510;28;20194;-73
2023/03/09 02:10:38;;;;;;;16.70;13.00;;;1.00;99.90;;;-0.05;91.31;98611.81;5056161;28;20191;-73
2023/03/09 02:13:17;;;;;;;16.47;12.03;;;1.00;99.90;;;-0.11;91.46;98610.63;5055936;28;20236;-73
2023/03/09 02:15:49;;;;;;;16.60;12.77;;;1.00;99.90;;;-0.11;90.98;98610.63;5055376;28;20225;-73
2023/03/09 02:18:21;;;;;;;16.20;12.67;;;1.00;99.90;;;-0.09;91.27;98613.09;5055419;28;20198;-73
2023/03/09 02:21:01;;;;;;;15.17;12.30;;;1.00;99.90;;;-0.08;91.11;98606.84;5055677;28;20198;-74
2023/03/09 02:23:41;;;;;;;18.63;12.80;;;1.00;99.90;;;-0.15;91.18;98611.03;5055458;28;20225;-73
2023/03/09 02:26:28;;;;;;;16.63;13.33;;;1.00;99.90;;;-0.07;91.73;98622.47;5055498;28;20183;-74
2023/03/09 02:29:01;;;;;;;16.37;12.30;;;1.00;99.90;;;-0.09;90.86;98620.97;5055129;28;20648;-74
2023/03/09 02:31:33;;;;;;;16.30;12.47;;;1.00;99.90;;;-0.11;90.50;98621.13;5055144;28;20186;-74
2023/03/09 02:34:05;;;;;;;15.60;12.43;;;1.00;99.90;;;-0.15;90.67;98624.19;5055308;28;20256;-73
2023/03/09 02:36:37;;;;;;;17.40;13.33;;;0.90;99.90;;;-0.14;91.69;98626.66;5055289;28;20218;-73
2023/03/09 02:39:15;;;;;;;17.07;13.50;;;0.90;99.90;;;-0.11;91.82;98629.03;5055266;28;20328;-73
2023/03/09 02:41:47;;;;;;;17.97;13.30;;;1.00;99.90;;;-0.10;91.62;98625.41;5055235;28;20190;-73
2023/03/09 02:44:20;;;;;;;16.97;13.60;;;1.00;99.90;;;-0.12;91.15;98627.34;5055068;28;20226;-73
2023/03/09 02:46:52;;;;;;;20.40;14.57;;;1.00;99.90;;;-0.11;90.88;98638.72;5055138;28;20192;-75
2023/03/09 02:49:24;;;;;;;17.50;13.77;;;1.00;99.90;;;-0.10;91.32;98625.41;5055071;28;20194;-74
2023/03/09 02:51:55;;;;;;;19.30;13.50;;;1.00;99.90;;;-0.11;91.67;98633.47;5054979;28;20198;-74
2023/03/09 02:54:27;;;;;;;18.33;13.67;;;1.00;99.90;;;-0.08;92.16;98633.16;5055352;28;20233;-74
2023/03/09 02:56:59;;;;;;;19.30;14.23;;;1.00;99.90;;;-0.11;91.28;98633.47;5054854;28;20214;-74
2023/03/09 02:59:32;;;;;;;19.13;14.50;;;1.00;99.90;;;-0.09;91.31;98620.97;5054857;28;20202;-73
2023/03/09 03:02:04;;;;;;;18.47;14.40;;;1.00;99.90;;;-0.06;91.80;98620.69;5055076;28;20198;-74
2023/03/09 03:04:36;;;;;;;19.30;14.67;;;1.00;99.90;;;-0.04;90.97;98624.00;5053982;28;20230;-74
2023/03/09 03:07:08;;;;;;;21.20;15.00;;;1.00;99.90;;;-0.04;91.36;98611.69;5054792;28;20182;-74
2023/03/09 03:09:40;;;;;;;20.60;14.03;;;1.00;99.90;;;0.03;91.01;98625.09;5054467;28;20195;-74
2023/03/09 03:12:13;;;;;;;21.87;15.53;;;1.10;99.90;;;-0.06;90.52;98616.25;5054596;28;20201;-74
2023/03/09 03:14:46;;;;;;;21.70;15.17;;;1.00;99.90;;;-0.08;91.01;98620.84;5054423;28;20712;-73
2023/03/09 03:17:18;;;;;;;23.87;17.03;;;1.00;99.90;;;-0.12;92.02;98621.28;5054214;28;20716;-74
2023/03/09 03:19:51;;;;;;;24.60;17.17;;;1.00;99.90;;;-0.12;91.37;98626.53;5054359;28;20191;-73
2023/03/09 03:22:25;;;;;;;22.20;16.40;;;0.90;99.90;;;-0.06;91.45;98620.69;5054139;28;20199;-74
2023/03/09 03:24:56;;;;;;;24.07;16.13;;;1.00;99.90;;;-0.08;91.85;98625.28;5053420;28;20249;-73
2023/03/09 03:27:28;;;;;;;25.20;16.97;;;0.90;99.90;;;-0.09;91.11;98642.00;5052943;28;20613;-74
2023/03/09 03:30:02;;;;;;;27.13;18.40;;;1.00;99.90;;;-0.08;91.57;98638.41;5054679;28;20273;-74
2023/03/09 03:32:34;;;;;;;23.50;15.67;;;1.00;99.90;;;-0.05;91.12;98653.91;5054740;28;20195;-75
2023/03/09 03:35:07;;;;;;;26.23;17.63;;;1.00;99.90;;;-0.01;91.46;98660.56;5055957;28;20353;-75
2023/03/09 03:37:39;;;;;;;24.67;17.93;;;1.10;99.90;;;-0.07;91.43;98655.88;5054650;28;20210;-75
2023/03/09 03:40:11;;;;;;;24.80;17.63;;;1.00;99.90;;;-0.08;92.14;98677.88;5054456;28;20191;-75
2023/03/09 03:42:42;;;;;;;25.47;18.67;;;1.00;99.90;;;-0.10;91.63;98693.78;5037370;28;20190;-75
2023/03/09 03:45:16;;;;;;;25.67;18.50;;;1.00;99.90;;;-0.13;92.38;98688.81;5054906;28;20229;-75
2023/03/09 03:47:48;;;;;;;26.47;18.67;;;1.00;99.90;;;-0.10;91.50;98699.03;5054319;28;20198;-75
2023/03/09 03:50:19;;;;;;;26.93;18.50;;;1.00;99.90;;;-0.15;91.06;98689.94;5054510;28;20198;-75
2023/03/09 03:52:51;;;;;;;28.63;19.03;;;0.90;99.90;;;-0.14;91.91;98686.34;5054148;28;20677;-75
2023/03/09 03:55:23;;;;;;;28.73;19.07;;;1.00;99.90;;;-0.13;91.58;98685.34;5054623;28;20232;-75
2023/03/09 03:57:55;;;;;;;27.83;18.87;;;0.90;99.90;;;-0.17;92.01;98697.16;5054029;28;20190;-75
2023/03/09 04:00:28;;;;;;;29.27;19.27;;;0.90;99.90;;;-0.15;92.13;98705.72;5054063;28;20205;-75
2023/03/09 04:03:00;;;;;;;29.97;19.87;;;0.90;99.90;;;-0.16;91.35;98706.69;5054138;28;20639;-75
2023/03/09 04:05:32;;;;;;;27.33;19.23;;;0.90;99.90;;;-0.15;91.83;98700.47;5054345;28;20186;-75
2023/03/09 04:08:04;;;;;;;27.43;19.33;;;0.90;99.90;;;-0.13;91.81;98707.22;5053839;28;20198;-76
2023/03/09 04:10:38;;;;;;;31.57;20.63;;;1.00;99.90;;;-0.20;91.78;98702.66;5054436;28;20197;-76
2023/03/09 04:13:09;;;;;;;29.10;19.33;;;0.90;99.90;;;-0.21;92.29;98704.50;5054306;28;20195;-76
2023/03/09 04:15:43;;;;;;;32.70;20.40;;;0.90;99.90;;;-0.13;91.44;98709.03;5052901;28;20210;-76
2023/03/09 04:18:15;;;;;;;29.30;19.53;;;1.00;99.90;;;-0.07;91.58;98709.28;5053805;28;20632;-76
2023/03/09 04:20:48;;;;;;;27.73;19.57;;;1.00;99.90;;;-0.09;92.07;98720.91;5054023;28;20655;-75
2023/03/09 04:23:20;;;;;;;29.60;20.17;;;1.00;99.90;;;-0.09;91.38;98720.91;5054220;28;20221;-75
2023/03/09 04:26:00;;;;;;;26.37;18.60;;;1.00;99.90;;;-0.07;91.82;98727.69;5054398;28;20281;-76
2023/03/09 04:28:32;;;;;;;26.70;19.63;;;1.00;99.90;;;-0.12;91.51;98729.94;5054232;28;20194;-76
2023/03/09 04:31:06;;;;;;;28.90;19.20;;;1.00;99.90;;;-0.08;91.78;98738.38;5053595;28;20198;-75
2023/03/09 04:33:42;;;;;;;28.10;19.40;;;1.00;99.90;;;-0.10;91.24;98742.91;5052556;28;20312;-75
2023/03/09 04:36:18;;;;;;;27.73;18.73;;;1.00;99.90;;;-0.11;91.19;98743.91;5054007;28;20229;-76
2023/03/09 04:38:50;;;;;;;27.20;18.43;;;1.00;99.90;;;-0.11;91.87;98742.13;5053335;28;20201;-75
2023/03/09 04:41:22;;;;;;;28.30;18.87;;;1.00;99.90;;;-0.08;91.64;98760.25;5060467;28;20201;-75
2023/03/09 04:43:54;;;;;;;30.37;19.10;;;1.00;99.90;;;-0.06;91.25;98763.56;5062706;28;20582;-75
2023/03/09 04:46:26;;;;;;;25.40;18.33;;;1.00;99.90;;;-0.06;91.48;98766.19;5065748;28;20190;-74
2023/03/09 04:48:58;;;;;;;25.10;18.30;;;1.00;99.90;;;-0.05;92.09;98757.34;5065686;28;20201;-75
2023/03/09 04:51:30;;;;;;;26.67;18.47;;;1.00;99.90;;;-0.09;91.22;98763.00;5065219;28;20194;-74
2023/03/09 04:54:03;;;;;;;26.03;18.33;;;1.00;99.90;;;-0.08;91.51;98773.41;5060324;28;20232;-76
2023/03/09 04:56:35;;;;;;;34.23;23.40;;;1.00;99.90;;;-0.01;92.51;98771.03;5053299;28;20218;-66
2023/03/09 04:59:06;;;;;;;26.77;18.53;;;1.10;99.90;;;-0.03;90.96;98767.69;5054506;28;20190;-76
2023/03/09 05:01:40;;;;;;;26.50;18.27;;;1.10;99.90;;;-0.01;91.13;98771.88;5053391;28;20205;-76
2023/03/09 05:04:11;;;;;;;27.90;17.63;;;1.00;99.90;;;-0.04;92.34;98771.31;5053463;28;20230;-75
2023/03/09 05:06:44;;;;;;;26.57;18.83;;;1.10;99.90;;;-0.01;92.39;98773.66;5053596;28;20198;-75
2023/03/09 05:09:16;;;;;;;25.10;17.73;;;1.00;99.90;;;-0.02;91.34;98775.47;5053202;28;20558;-75
2023/03/09 05:11:51;;;;;;;25.17;17.83;;;1.00;99.90;;;-0.03;92.09;98773.78;5053232;28;20195;-76
2023/03/09 05:14:25;;;;;;;24.67;17.77;;;1.10;99.90;;;-0.04;91.75;98781.84;5052701;28;20222;-75
2023/03/09 05:16:59;;;;;;;24.90;18.20;;;1.00;99.90;;;-0.04;92.67;98781.84;5053107;28;20226;-75
2023/03/09 05:19:31;;;;;;;25.93;18.10;;;1.00;99.90;;;-0.07;91.66;98795.28;5053141;28;20194;-76
2023/03/09 05:22:02;;;;;;;27.17;17.43;;;1.00;99.90;;;-0.08;92.88;98797.06;5052789;28;20651;-76
2023/03/09 05:24:34;;;;;;;27.00;18.07;;;1.00;99.90;;;-0.12;91.89;98802.75;5052953;28;20230;-76
2023/03/09 05:27:06;;;;;;;26.97;17.73;;;1.00;99.90;;;-0.11;92.09;98807.88;5054272;28;20189;-76
2023/03/09 05:29:38;;;;;;;26.00;18.47;;;1.00;99.90;;;-0.14;92.33;98813.38;5056717;28;20194;-76
2023/03/09 05:32:11;;;;;;;27.10;18.63;;;1.00;99.90;;;-0.12;92.28;98800.09;5056700;28;20198;-76
2023/03/09 05:34:43;;;;;;;26.77;18.17;;;1.00;99.90;;;-0.11;93.61;98802.63;5056547;28;20313;-75
2023/03/09 05:37:15;;;;;;;26.47;17.60;;;1.00;99.90;;;-0.13;92.75;98812.44;5056998;28;20237;-75
2023/03/09 05:39:47;;;;;;;23.67;16.90;;;0.90;99.90;;;-0.11;92.44;98812.31;5056448;28;20260;-75
2023/03/09 05:42:19;;;;;;;25.20;17.97;;;1.00;99.90;;;-0.08;92.33;98812.00;5056248;28;20194;-76
2023/03/09 05:44:51;;;;;;;24.23;17.63;;;1.00;99.90;;;-0.08;92.39;98822.53;5056074;28;20226;-76
2023/03/09 05:47:24;;;;;;;25.17;17.50;;;1.00;99.90;;;-0.09;92.74;98821.69;5056430;28;20209;-76
2023/03/09 05:49:56;;;;;;;24.90;16.83;;;1.00;99.90;;;-0.07;92.60;98827.66;5056106;28;20198;-75
2023/03/09 05:52:28;;;;;;;25.07;16.93;;;1.00;99.90;;;-0.06;92.22;98846.88;5056251;28;20190;-75
2023/03/09 05:55:00;;;;;;;24.07;16.73;;;1.00;99.90;;;-0.03;92.42;98846.59;5056553;28;20237;-76
2023/03/09 05:57:32;;;;;;;23.87;16.90;;;1.00;99.90;;;-0.01;92.48;98861.31;5056159;28;20217;-75
2023/03/09 06:00:04;;;;;;;22.27;16.13;;;1.10;99.90;;;0.03;91.80;98867.13;5056151;28;20206;-75
2023/03/09 06:02:37;;;;;;;21.93;16.33;;;1.10;99.90;;;0.02;91.96;98865.44;5056096;28;20209;-75
2023/03/09 06:05:11;;;;;;;22.20;16.30;;;1.10;99.90;;;-0.04;92.16;98866.00;5055781;28;20238;-75
2023/03/09 06:07:43;;;;;;;24.20;16.73;;;1.10;99.90;;;-0.02;91.87;98867.53;5056317;28;20190;-75
2023/03/09 06:10:16;;;;;;;24.37;17.60;;;1.10;99.90;;;0.00;92.49;98867.41;5055945;28;20202;-76
2023/03/09 06:12:47;;;;;;;23.77;16.33;;;1.10;99.90;;;-0.04;92.05;98871.28;5055968;28;20194;-75
2023/03/09 06:15:19;;;;;;;22.33;16.60;;;1.00;99.90;;;-0.08;91.85;98877.78;5055694;28;20226;-75
2023/03/09 06:17:53;;;;;;;22.07;16.03;;;1.00;99.90;;;-0.05;91.95;98877.50;5055763;28;20206;-75
2023/03/09 06:20:25;;;;;;;22.70;16.53;;;1.00;99.90;;;-0.06;92.29;98881.09;5055421;28;20190;-76
2023/03/09 06:22:56;;;;;;;22.40;16.87;;;1.00;99.90;;;-0.06;91.92;98874.03;5055361;28;20709;-65
2023/03/09 06:25:28;;;;;;;22.10;16.47;;;1.10;99.90;;;0.02;92.07;98869.88;5055679;28;20198;-75
2023/03/09 06:28:00;;;;;;;21.93;16.63;;;1.10;99.90;;;0.02;92.06;98875.97;5055224;28;20194;-75
2023/03/09 06:30:32;;;;;;;21.37;16.00;;;1.10;99.90;;;0.04;92.50;98884.53;5055149;28;20653;-75
2023/03/09 06:33:05;;;;;;;22.90;16.43;;;1.10;99.90;;;0.04;92.23;98889.81;5055005;28;20598;-75
2023/03/09 06:35:39;;;;;;;20.77;15.77;;;1.10;99.90;;;0.07;91.50;98894.78;5055054;28;20194;-75
2023/03/09 06:38:11;;;;;;;20.73;15.10;;;1.10;99.90;;;0.08;92.40;98899.09;5055071;28;20268;-75
2023/03/09 06:40:45;;;;;;;23.13;16.33;;;1.20;99.90;;;0.09;91.37;98889.41;5055108;28;20201;-74
2023/03/09 06:43:17;;;;;;;22.83;16.50;;;1.10;99.90;;;0.05;91.37;98898.53;5055118;28;20245;-75
2023/03/09 06:45:50;;;;;;;22.57;16.13;;;1.10;99.90;;;0.08;91.09;98898.25;5055169;28;20198;-75
2023/03/09 06:48:23;;;;;;;20.73;15.53;;;1.20;99.90;;;0.11;91.83;98911.13;5055128;28;20241;-74
2023/03/09 06:50:54;;;;;;;23.40;16.17;;;1.20;99.90;;;0.10;91.25;98906.84;5055057;28;20190;-74
2023/03/09 06:53:26;;;;;;;19.63;15.10;;;1.20;99.90;;;0.12;91.36;98903.09;5054708;28;20234;-74
2023/03/09 06:55:59;;;;;;;20.43;15.13;;;1.20;99.90;;;0.13;92.05;98904.78;5054947;28;20190;-74
2023/03/09 06:58:32;;;;;;;21.07;14.97;;;1.20;99.90;;;0.12;91.89;98905.75;5054861;28;20210;-74
2023/03/09 07:01:11;;;;;;;20.67;15.70;;;1.20;99.90;;;0.14;90.80;98901.16;5054893;28;20197;-74
2023/03/09 07:03:45;;;;;;;21.90;16.37;;;1.20;99.90;;;0.16;91.57;98909.75;5054432;28;20256;-74
2023/03/09 07:06:17;;;;;;;22.40;15.70;;;1.20;99.90;;;0.17;91.68;98921.91;5054481;28;20191;-74
2023/03/09 07:08:49;;;;;;;22.23;15.43;;;1.30;99.90;;;0.17;91.63;98942.16;5054447;28;20186;-74
2023/03/09 07:11:21;;;;;;;18.60;13.87;;;1.20;99.90;;;0.18;91.34;98938.53;5054720;28;20676;-74
2023/03/09 07:13:53;;;;;;;19.63;15.17;;;1.30;99.90;;;0.16;91.42;98959.75;5054258;28;20713;-74
2023/03/09 07:16:26;;;;;;;20.70;15.67;;;1.20;99.90;;;0.18;91.57;98949.91;5054523;28;20225;-74
2023/03/09 07:18:59;;;;;;;20.37;15.50;;;1.30;99.90;;;0.19;91.21;98954.22;5054150;28;20731;-74
2023/03/09 07:21:30;;;;;;;20.33;15.50;;;1.30;99.90;;;0.21;91.83;98951.44;5054470;28;20193;-74
2023/03/09 07:24:03;;;;;;;20.23;15.17;;;1.30;99.90;;;0.24;91.51;98957.25;5054067;28;20226;-74
2023/03/09 07:26:35;;;;;;;20.57;15.93;;;1.30;99.90;;;0.27;91.45;98967.53;5054106;28;20643;-74
2023/03/09 07:29:07;;;;;;;21.27;15.73;;;1.30;99.90;;;0.29;91.48;98972.63;5054325;28;20190;-74
2023/03/09 07:31:40;;;;;;;20.23;15.53;;;1.30;99.90;;;0.25;90.48;98974.72;5054299;28;20190;-74
2023/03/09 07:34:14;;;;;;;22.13;15.47;;;1.30;99.90;;;0.29;90.74;98986.63;5054258;28;20316;-74
2023/03/09 07:36:45;;;;;;;20.03;15.47;;;1.40;99.90;;;0.29;91.30;99007.69;5053912;28;20678;-74
2023/03/09 07:39:17;;;;;;;22.17;16.60;;;1.30;99.90;;;0.32;90.56;99007.41;5054371;28;20221;-74
2023/03/09 07:41:49;;;;;;;22.10;16.70;;;1.40;99.90;;;0.35;90.19;99020.28;5053864;28;20670;-74
2023/03/09 07:44:21;;;;;;;20.10;15.50;;;1.40;99.90;;;0.36;90.37;99024.59;5053990;28;20230;-74
2023/03/09 07:46:53;;;;;;;21.63;15.87;;;1.40;99.90;;;0.39;90.29;99026.09;5054025;28;20190;-74
2023/03/09 07:49:26;;;;;;;22.00;16.50;;;1.50;99.90;;;0.39;90.57;99026.09;5053820;28;20190;-74
2023/03/09 07:51:58;;;;;;;21.20;16.50;;;1.50;99.90;;;0.34;89.82;99023.88;5053957;28;20195;-74
2023/03/09 07:54:30;;;;;;;21.90;16.63;;;1.40;99.90;;;0.32;90.64;99027.63;5053754;28;20229;-74
2023/03/09 07:57:02;;;;;;;21.93;15.97;;;1.40;99.90;;;0.26;91.13;99044.81;5053749;28;20192;-74
2023/03/09 07:59:33;;;;;;;26.07;17.27;;;1.30;99.90;;;0.28;90.52;99049.91;5053652;28;20288;-74
2023/03/09 08:02:06;;;;;;;26.17;17.57;;;1.40;99.90;;;0.32;90.83;99039.00;5053423;28;20635;-74
2023/03/09 08:04:39;;;;;;;21.93;16.23;;;1.40;99.90;;;0.34;90.32;99034.41;5053586;28;20226;-74
2023/03/09 08:07:11;;;;;;;23.93;16.60;;;1.40;99.90;;;0.36;90.87;99034.28;5053657;28;20194;-74
2023/03/09 08:09:44;;;;;;;20.13;15.53;;;1.40;99.90;;;0.40;90.42;99043.56;5053614;28;20186;-74
2023/03/09 08:12:16;;;;;;;21.57;16.03;;;1.50;99.90;;;0.39;90.61;99048.00;5053603;28;20245;-74
2023/03/09 08:14:49;;;;;;;21.87;16.40;;;1.50;99.90;;;0.40;90.61;99036.50;5053277;28;20245;-74
2023/03/09 08:17:21;;;;;;;22.10;15.80;;;1.50;99.90;;;0.41;90.51;99038.16;5053188;28;20666;-74
2023/03/09 08:19:54;;;;;;;20.03;15.10;;;1.50;99.90;;;0.44;90.03;99042.34;5053654;28;20224;-74
2023/03/09 08:22:26;;;;;;;21.97;16.03;;;1.50;99.90;;;0.44;90.85;99051.06;5053488;28;20198;-74
2023/03/09 08:24:58;;;;;;;20.53;15.00;;;1.50;99.90;;;0.45;90.25;99052.72;5053688;28;20245;-74
2023/03/09 08:27:39;;;;;;;19.40;14.70;;;1.50;99.90;;;0.45;90.82;99068.50;5053645;28;20190;-74
2023/03/09 08:30:12;;;;;;;18.97;13.87;;;1.50;99.90;;;0.47;90.75;99071.84;5053354;28;20190;-74
2023/03/09 08:32:47;;;;;;;20.00;15.00;;;1.50;99.90;;;0.46;90.11;99070.19;5053062;28;20193;-74
2023/03/09 08:35:23;;;;;;;22.67;14.80;;;1.50;99.90;;;0.47;90.47;99082.38;5053040;28;20634;-74
2023/03/09 08:37:55;;;;;;;19.37;14.43;;;1.50;99.90;;;0.50;90.00;99081.28;5053218;28;20194;-74
2023/03/09 08:40:27;;;;;;;21.87;14.73;;;1.60;99.90;;;0.44;90.27;99089.72;5053541;28;20205;-74
2023/03/09 08:42:59;;;;;;;19.87;14.40;;;1.50;99.90;;;0.40;90.68;99086.53;5053191;28;20198;-74
2023/03/09 08:45:31;;;;;;;19.70;14.57;;;1.40;99.90;;;0.44;91.35;99081.81;5053494;28;20186;-74
2023/03/09 08:48:03;;;;;;;20.33;15.57;;;1.50;99.90;;;0.47;91.28;99082.38;5053270;28;20187;-74
2023/03/09 08:50:36;;;;;;;19.63;14.13;;;1.50;99.90;;;0.49;91.23;99080.44;5053211;28;20198;-74
2023/03/09 08:53:08;;;;;;;20.67;14.73;;;1.50;99.90;;;0.48;90.89;99084.03;5053113;28;20194;-74
2023/03/09 08:55:40;;;;;;;21.50;15.43;;;1.60;99.90;;;0.49;91.23;99085.69;5053137;28;20194;-74
2023/03/09 08:58:12;;;;;;;20.03;15.00;;;1.50;99.90;;;0.55;91.11;99089.56;5053304;28;20201;-74
2023/03/09 09:00:43;;;;;;;19.20;13.57;;;1.60;99.90;;;0.57;89.94;99089.44;5053119;28;20190;-74
2023/03/09 09:03:15;;;;;;;20.50;15.30;;;1.60;99.90;;;0.60;90.27;99095.28;5056053;28;20226;-74
2023/03/09 09:05:49;;;;;;;19.07;14.37;;;1.70;99.90;;;0.59;90.65;99106.78;5057027;28;20190;-74
2023/03/09 09:08:21;;;;;;;20.63;14.43;;;1.70;99.90;;;0.58;90.58;99104.28;5057256;28;20194;-74
2023/03/09 09:10:53;;;;;;;22.90;15.60;;;1.70;99.90;;;0.56;90.95;99111.47;5056937;28;20285;-74
2023/03/09 09:13:25;;;;;;;19.73;14.57;;;1.60;99.90;;;0.62;90.74;99122.28;5056770;28;20233;-74
2023/03/09 09:15:57;;;;;;;23.23;16.13;;;1.70;99.90;;;0.65;90.35;99119.38;5056739;28;20210;-74
2023/03/09 09:18:29;;;;;;;20.33;15.07;;;1.70;99.90;;;0.63;90.04;99120.50;5056680;28;20198;-74
2023/03/09 09:21:14;;;;;;;20.53;15.10;;;1.70;99.90;;;0.64;90.16;99122.16;5056723;28;20273;-74
2023/03/09 09:23:49;;;;;;;19.80;14.83;;;1.70;99.90;;;0.64;90.07;99122.16;5056627;28;20635;-74
2023/03/09 09:26:21;;;;;;;21.67;15.33;;;1.70;99.90;;;0.65;90.37;99116.75;5056315;28;20660;-74
2023/03/09 09:28:52;;;;;;;21.67;15.30;;;1.70;99.90;;;0.63;90.43;99120.50;5056562;28;20190;-74
2023/03/09 09:31:28;;;;;;;21.90;15.17;;;1.70;99.90;;;0.64;90.39;99123.00;5056569;28;20196;-74
2023/03/09 09:34:00;;;;;;;21.63;15.17;;;1.70;99.90;;;0.67;89.97;99135.06;5056147;28;20636;-74
2023/03/09 09:36:34;;;;;;;21.73;15.43;;;1.70;99.90;;;0.72;90.88;99132.88;5056923;28;20190;-74
2023/03/09 09:39:06;;;;;;;23.60;17.13;;;1.80;99.90;;;0.73;90.19;99129.25;5056375;28;20214;-74
2023/03/09 09:41:46;;;;;;;25.13;17.17;;;1.80;99.90;;;0.76;90.33;99128.97;5056110;28;20647;-74
2023/03/09 09:44:24;;;;;;;22.03;15.53;;;1.80;99.90;;;0.69;89.86;99127.84;5056568;28;20225;-74
2023/03/09 09:47:01;;;;;;;19.73;15.33;;;1.80;99.90;;;0.72;89.76;99133.66;5056302;28;20187;-74
2023/03/09 09:49:44;;;;;;;21.43;15.83;;;1.80;99.90;;;0.70;89.93;99142.69;5056261;28;20197;-74
2023/03/09 09:52:31;;;;;;;21.03;15.73;;;1.80;99.90;;;0.74;89.78;99144.06;5056238;28;20182;-74
2023/03/09 09:55:14;;;;;;;21.40;15.10;;;1.80;99.90;;;0.74;89.51;99151.97;5056047;28;20600;-74
2023/03/09 09:57:52;;;;;;;21.73;15.73;;;1.80;99.90;;;0.76;89.75;99155.28;5055791;28;20195;-74
2023/03/09 10:00:29;;;;;;;21.87;16.10;;;1.80;99.90;;;0.76;90.36;99150.03;5055942;28;20308;-74
2023/03/09 10:03:10;;;;;;;22.50;15.73;;;1.80;99.90;;;0.80;90.25;99156.69;5056434;28;20190;-74
2023/03/09 10:05:49;;;;;;;21.80;15.83;;;1.80;99.90;;;0.78;89.59;99153.38;5055912;28;20226;-74
2023/03/09 10:08:34;;;;;;;20.30;15.30;;;1.80;99.90;;;0.77;90.33;99146.44;5055901;28;20197;-74
2023/03/09 10:11:13;;;;;;;19.33;15.13;;;1.90;99.90;;;0.82;89.67;99158.22;5055846;28;20191;-74
2023/03/09 10:13:50;;;;;;;22.53;16.47;;;1.90;99.90;;;0.83;89.74;99161.69;5055638;28;20221;-74
2023/03/09 10:16:28;;;;;;;21.10;15.73;;;1.90;99.90;;;0.87;90.37;99168.34;5055456;28;20765;-74
2023/03/09 10:19:04;;;;;;;21.83;16.27;;;1.90;99.90;;;0.85;90.05;99170.31;5055336;28;20230;-74
2023/03/09 10:21:47;;;;;;;22.23;16.03;;;1.90;99.90;;;0.82;89.51;99173.22;5055396;28;20686;-74
2023/03/09 10:24:29;;;;;;;20.87;14.90;;;1.90;99.90;;;0.84;89.07;99174.72;5055498;28;20321;-74
2023/03/09 10:27:07;;;;;;;20.23;14.80;;;1.90;99.90;;;0.88;89.75;99177.94;5055569;28;20194;-74
2023/03/09 10:29:49;;;;;;;21.23;16.27;;;1.90;99.90;;;0.89;88.85;99179.59;5055411;28;20701;-74
2023/03/09 10:32:46;;;;;;;20.70;15.70;;;2.00;99.90;;;0.92;89.36;99187.22;5055113;28;20551;-74
2023/03/09 10:35:33;;;;;;;21.93;16.07;;;2.00;99.90;;;0.93;89.85;99188.88;5055042;28;20194;-74
2023/03/09 10:38:05;;;;;;;23.73;16.20;;;2.00;99.90;;;0.93;90.02;99188.88;5055422;28;20190;-74
2023/03/09 10:40:49;;;;;;;20.87;16.00;;;2.00;99.90;;;0.96;89.08;99185.97;5055218;28;20210;-74
2023/03/09 10:43:27;;;;;;;21.37;16.00;;;2.00;99.90;;;0.92;89.34;99192.50;5055149;28;20230;-74